sensor_id;sensor_type;location;lat;lon;timestamp;P1;durP1;ratioP1;P2;durP2;ratioP2
26478;SDS011;14163;-26.142;27.992;2023-03-14T00:01:31;3.00;;;2.30;;
26478;SDS011;14163;-26.142;27.992;2023-03-14T00:04:00;3.83;;;2.60;;
26478;SDS011;14163;-26.142;27.992;2023-03-14T00:06:31;3.20;;;2.60;;
26478;SDS011;14163;-26.142;27.992;2023-03-14T00:09:02;9.30;;;2.90;;
26478;SDS011;14163;-26.142;27.992;2023-03-14T00:11:33;3.20;;;2.13;;
26478;SDS011;14163;-26.142;27.992;2023-03-14T00:14:02;4.53;;;2.57;;
26478;SDS011;14163;-26.142;27.992;2023-03-14T00:16:31;4.10;;;2.57;;
26478;SDS011;14163;-26.142;27.992;2023-03-14T00:19:01;4.60;;;3.00;;
26478;SDS011;14163;-26.142;27.992;2023-03-14T00:21:30;3.87;;;3.30;;
26478;SDS011;14163;-26.142;27.992;2023-03-14T00:23:59;3.70;;;2.90;;
26478;SDS011;14163;-26.142;27.992;2023-03-14T00:26:28;3.83;;;3.30;;
26478;SDS011;14163;-26.142;27.992;2023-03-14T00:28:59;4.20;;;3.27;;
26478;SDS011;14163;-26.142;27.992;2023-03-14T00:31:28;5.00;;;3.07;;
26478;SDS011;14163;-26.142;27.992;2023-03-14T00:33:58;4.37;;;2.70;;
26478;SDS011;14163;-26.142;27.992;2023-03-14T00:36:27;4.47;;;2.73;;
26478;SDS011;14163;-26.142;27.992;2023-03-14T00:38:56;4.50;;;2.73;;
26478;SDS011;14163;-26.142;27.992;2023-03-14T00:41:25;5.93;;;3.57;;
26478;SDS011;14163;-26.142;27.992;2023-03-14T00:43:55;7.37;;;3.70;;
26478;SDS011;14163;-26.142;27.992;2023-03-14T00:46:25;7.07;;;3.40;;
26478;SDS011;14163;-26.142;27.992;2023-03-14T00:48:55;5.37;;;3.80;;
26478;SDS011;14163;-26.142;27.992;2023-03-14T00:51:24;4.23;;;3.40;;
26478;SDS011;14163;-26.142;27.992;2023-03-14T00:53:53;11.70;;;4.27;;
26478;SDS011;14163;-26.142;27.992;2023-03-14T00:56:22;4.60;;;3.70;;
26478;SDS011;14163;-26.142;27.992;2023-03-14T00:58:53;7.70;;;4.33;;
26478;SDS011;14163;-26.142;27.992;2023-03-14T01:01:23;9.60;;;4.50;;
26478;SDS011;14163;-26.142;27.992;2023-03-14T01:03:54;6.40;;;5.00;;
26478;SDS011;14163;-26.142;27.992;2023-03-14T01:06:24;10.47;;;5.17;;
26478;SDS011;14163;-26.142;27.992;2023-03-14T01:08:54;7.30;;;5.00;;
26478;SDS011;14163;-26.142;27.992;2023-03-14T01:11:25;8.07;;;5.23;;
26478;SDS011;14163;-26.142;27.992;2023-03-14T01:13:56;8.87;;;5.27;;
26478;SDS011;14163;-26.142;27.992;2023-03-14T01:16:27;5.77;;;4.70;;
26478;SDS011;14163;-26.142;27.992;2023-03-14T01:18:57;8.23;;;5.40;;
26478;SDS011;14163;-26.142;27.992;2023-03-14T01:21:27;7.27;;;4.90;;
26478;SDS011;14163;-26.142;27.992;2023-03-14T01:23:58;7.13;;;5.20;;
26478;SDS011;14163;-26.142;27.992;2023-03-14T01:26:29;6.20;;;4.83;;
26478;SDS011;14163;-26.142;27.992;2023-03-14T01:29:00;8.73;;;5.27;;
26478;SDS011;14163;-26.142;27.992;2023-03-14T01:31:31;9.53;;;5.50;;
26478;SDS011;14163;-26.142;27.992;2023-03-14T01:34:00;8.67;;;5.60;;
26478;SDS011;14163;-26.142;27.992;2023-03-14T01:36:30;6.23;;;5.40;;
26478;SDS011;14163;-26.142;27.992;2023-03-14T01:38:59;5.23;;;4.70;;
26478;SDS011;14163;-26.142;27.992;2023-03-14T01:41:28;17.90;;;4.90;;
26478;SDS011;14163;-26.142;27.992;2023-03-14T01:43:57;5.10;;;4.53;;
26478;SDS011;14163;-26.142;27.992;2023-03-14T01:46:39;5.40;;;4.60;;
26478;SDS011;14163;-26.142;27.992;2023-03-14T01:49:15;9.60;;;5.10;;
26478;SDS011;14163;-26.142;27.992;2023-03-14T01:51:49;9.17;;;5.30;;
26478;SDS011;14163;-26.142;27.992;2023-03-14T01:54:24;5.00;;;4.50;;
26478;SDS011;14163;-26.142;27.992;2023-03-14T01:56:57;6.70;;;4.70;;
26478;SDS011;14163;-26.142;27.992;2023-03-14T01:59:31;6.73;;;5.07;;
26478;SDS011;14163;-26.142;27.992;2023-03-14T04:06:13;13.87;;;11.93;;
26478;SDS011;14163;-26.142;27.992;2023-03-14T04:08:42;35.13;;;26.13;;
26478;SDS011;14163;-26.142;27.992;2023-03-14T04:11:11;19.27;;;16.63;;
26478;SDS011;14163;-26.142;27.992;2023-03-14T04:13:41;14.40;;;12.33;;
26478;SDS011;14163;-26.142;27.992;2023-03-14T04:16:11;13.23;;;11.93;;
26478;SDS011;14163;-26.142;27.992;2023-03-14T04:18:44;15.80;;;12.43;;
26478;SDS011;14163;-26.142;27.992;2023-03-14T04:21:15;17.13;;;12.47;;
26478;SDS011;14163;-26.142;27.992;2023-03-14T04:23:44;15.87;;;12.53;;
26478;SDS011;14163;-26.142;27.992;2023-03-14T04:26:13;17.43;;;13.23;;
26478;SDS011;14163;-26.142;27.992;2023-03-14T04:28:43;16.20;;;14.50;;
26478;SDS011;14163;-26.142;27.992;2023-03-14T04:31:13;18.40;;;14.53;;
26478;SDS011;14163;-26.142;27.992;2023-03-14T04:33:44;20.10;;;15.20;;
26478;SDS011;14163;-26.142;27.992;2023-03-14T04:36:15;21.80;;;15.00;;
26478;SDS011;14163;-26.142;27.992;2023-03-14T04:38:44;21.30;;;15.80;;
26478;SDS011;14163;-26.142;27.992;2023-03-14T04:41:13;25.00;;;15.87;;
26478;SDS011;14163;-26.142;27.992;2023-03-14T04:43:42;25.87;;;17.13;;
26478;SDS011;14163;-26.142;27.992;2023-03-14T04:46:12;21.73;;;15.30;;
26478;SDS011;14163;-26.142;27.992;2023-03-14T04:48:41;23.70;;;17.10;;
26478;SDS011;14163;-26.142;27.992;2023-03-14T04:51:10;21.10;;;16.87;;
26478;SDS011;14163;-26.142;27.992;2023-03-14T04:53:41;24.23;;;17.30;;
26478;SDS011;14163;-26.142;27.992;2023-03-14T04:56:10;19.53;;;16.60;;
26478;SDS011;14163;-26.142;27.992;2023-03-14T04:58:39;20.53;;;16.87;;
26478;SDS011;14163;-26.142;27.992;2023-03-14T05:01:10;20.93;;;16.37;;
26478;SDS011;14163;-26.142;27.992;2023-03-14T05:03:39;19.93;;;14.60;;
26478;SDS011;14163;-26.142;27.992;2023-03-14T05:06:08;21.40;;;14.80;;
26478;SDS011;14163;-26.142;27.992;2023-03-14T05:08:37;21.50;;;14.20;;
26478;SDS011;14163;-26.142;27.992;2023-03-14T05:11:09;19.23;;;13.20;;
26478;SDS011;14163;-26.142;27.992;2023-03-14T05:13:39;18.47;;;12.30;;
26478;SDS011;14163;-26.142;27.992;2023-03-14T05:16:09;15.30;;;11.70;;
26478;SDS011;14163;-26.142;27.992;2023-03-14T05:18:38;19.20;;;12.57;;
26478;SDS011;14163;-26.142;27.992;2023-03-14T05:21:08;13.33;;;10.10;;
26478;SDS011;14163;-26.142;27.992;2023-03-14T05:23:37;16.20;;;10.20;;
26478;SDS011;14163;-26.142;27.992;2023-03-14T05:26:08;13.27;;;10.80;;
26478;SDS011;14163;-26.142;27.992;2023-03-14T05:28:37;11.47;;;9.50;;
26478;SDS011;14163;-26.142;27.992;2023-03-14T05:31:06;12.47;;;8.77;;
26478;SDS011;14163;-26.142;27.992;2023-03-14T05:33:36;10.00;;;8.30;;
26478;SDS011;14163;-26.142;27.992;2023-03-14T05:36:05;11.53;;;8.87;;
26478;SDS011;14163;-26.142;27.992;2023-03-14T05:38:36;9.87;;;8.00;;
26478;SDS011;14163;-26.142;27.992;2023-03-14T05:41:05;11.83;;;8.00;;
26478;SDS011;14163;-26.142;27.992;2023-03-14T05:43:36;11.77;;;7.30;;
26478;SDS011;14163;-26.142;27.992;2023-03-14T05:46:05;9.87;;;7.40;;
26478;SDS011;14163;-26.142;27.992;2023-03-14T05:48:35;8.13;;;6.23;;
26478;SDS011;14163;-26.142;27.992;2023-03-14T05:51:05;6.77;;;6.07;;
26478;SDS011;14163;-26.142;27.992;2023-03-14T05:53:34;11.57;;;7.03;;
26478;SDS011;14163;-26.142;27.992;2023-03-14T05:56:03;9.73;;;6.13;;
26478;SDS011;14163;-26.142;27.992;2023-03-14T05:58:35;9.17;;;5.93;;
26478;SDS011;14163;-26.142;27.992;2023-03-14T06:01:04;10.70;;;7.20;;
26478;SDS011;14163;-26.142;27.992;2023-03-14T06:03:34;9.53;;;6.47;;
26478;SDS011;14163;-26.142;27.992;2023-03-14T06:06:04;7.87;;;5.53;;
26478;SDS011;14163;-26.142;27.992;2023-03-14T06:08:33;6.90;;;5.40;;
26478;SDS011;14163;-26.142;27.992;2023-03-14T06:11:03;9.37;;;5.17;;
26478;SDS011;14163;-26.142;27.992;2023-03-14T06:13:32;6.60;;;4.30;;
26478;SDS011;14163;-26.142;27.992;2023-03-14T06:16:03;5.17;;;4.30;;
26478;SDS011;14163;-26.142;27.992;2023-03-14T06:18:33;3.80;;;3.33;;
26478;SDS011;14163;-26.142;27.992;2023-03-14T06:21:02;4.20;;;3.27;;
26478;SDS011;14163;-26.142;27.992;2023-03-14T06:23:32;5.70;;;3.83;;
26478;SDS011;14163;-26.142;27.992;2023-03-14T06:26:01;3.60;;;3.30;;
26478;SDS011;14163;-26.142;27.992;2023-03-14T06:28:31;6.37;;;4.00;;
26478;SDS011;14163;-26.142;27.992;2023-03-14T06:31:02;5.50;;;3.70;;
26478;SDS011;14163;-26.142;27.992;2023-03-14T06:33:31;3.60;;;3.30;;
26478;SDS011;14163;-26.142;27.992;2023-03-14T06:36:00;5.97;;;4.47;;
26478;SDS011;14163;-26.142;27.992;2023-03-14T06:38:30;6.17;;;4.17;;
26478;SDS011;14163;-26.142;27.992;2023-03-14T06:41:03;4.50;;;3.63;;
26478;SDS011;14163;-26.142;27.992;2023-03-14T06:43:32;6.33;;;4.30;;
26478;SDS011;14163;-26.142;27.992;2023-03-14T06:46:03;8.13;;;3.57;;
26478;SDS011;14163;-26.142;27.992;2023-03-14T06:48:32;4.90;;;3.93;;
26478;SDS011;14163;-26.142;27.992;2023-03-14T06:51:02;6.20;;;3.87;;
26478;SDS011;14163;-26.142;27.992;2023-03-14T06:53:32;5.80;;;3.57;;
26478;SDS011;14163;-26.142;27.992;2023-03-14T06:56:01;5.10;;;3.20;;
26478;SDS011;14163;-26.142;27.992;2023-03-14T06:58:30;8.40;;;3.80;;
26478;SDS011;14163;-26.142;27.992;2023-03-14T07:00:59;8.93;;;4.50;;
26478;SDS011;14163;-26.142;27.992;2023-03-14T07:03:30;7.60;;;5.20;;
26478;SDS011;14163;-26.142;27.992;2023-03-14T07:05:59;8.37;;;5.33;;
26478;SDS011;14163;-26.142;27.992;2023-03-14T07:08:29;9.63;;;5.77;;
26478;SDS011;14163;-26.142;27.992;2023-03-14T07:10:58;8.43;;;4.10;;
26478;SDS011;14163;-26.142;27.992;2023-03-14T07:13:27;8.80;;;5.00;;
26478;SDS011;14163;-26.142;27.992;2023-03-14T07:15:56;11.83;;;5.20;;
26478;SDS011;14163;-26.142;27.992;2023-03-14T07:18:26;8.33;;;4.90;;
26478;SDS011;14163;-26.142;27.992;2023-03-14T07:20:56;10.03;;;5.10;;
26478;SDS011;14163;-26.142;27.992;2023-03-14T07:23:26;12.53;;;5.83;;
26478;SDS011;14163;-26.142;27.992;2023-03-14T07:25:55;9.10;;;5.00;;
26478;SDS011;14163;-26.142;27.992;2023-03-14T07:28:24;8.77;;;4.60;;
26478;SDS011;14163;-26.142;27.992;2023-03-14T07:30:54;11.83;;;5.87;;
26478;SDS011;14163;-26.142;27.992;2023-03-14T07:33:23;11.43;;;6.10;;
26478;SDS011;14163;-26.142;27.992;2023-03-14T07:35:52;15.23;;;8.70;;
26478;SDS011;14163;-26.142;27.992;2023-03-14T07:38:23;17.97;;;8.80;;
26478;SDS011;14163;-26.142;27.992;2023-03-14T07:40:57;18.67;;;8.47;;
26478;SDS011;14163;-26.142;27.992;2023-03-14T07:43:27;12.10;;;7.33;;
26478;SDS011;14163;-26.142;27.992;2023-03-14T07:45:57;10.30;;;6.50;;
26478;SDS011;14163;-26.142;27.992;2023-03-14T07:48:26;11.43;;;6.27;;
26478;SDS011;14163;-26.142;27.992;2023-03-14T07:50:55;11.67;;;6.53;;
26478;SDS011;14163;-26.142;27.992;2023-03-14T07:53:26;9.47;;;5.70;;
26478;SDS011;14163;-26.142;27.992;2023-03-14T07:55:55;12.90;;;8.50;;
26478;SDS011;14163;-26.142;27.992;2023-03-14T07:58:25;11.37;;;6.60;;
26478;SDS011;14163;-26.142;27.992;2023-03-14T08:00:54;11.43;;;5.90;;
26478;SDS011;14163;-26.142;27.992;2023-03-14T08:03:26;9.77;;;5.40;;
26478;SDS011;14163;-26.142;27.992;2023-03-14T08:05:55;7.50;;;4.77;;
26478;SDS011;14163;-26.142;27.992;2023-03-14T08:08:26;8.47;;;4.60;;
26478;SDS011;14163;-26.142;27.992;2023-03-14T08:10:55;6.37;;;5.53;;
26478;SDS011;14163;-26.142;27.992;2023-03-14T08:13:29;6.43;;;5.60;;
26478;SDS011;14163;-26.142;27.992;2023-03-14T08:15:58;5.40;;;4.50;;
26478;SDS011;14163;-26.142;27.992;2023-03-14T08:18:28;5.87;;;5.00;;
26478;SDS011;14163;-26.142;27.992;2023-03-14T08:20:57;7.57;;;5.20;;
26478;SDS011;14163;-26.142;27.992;2023-03-14T08:23:28;10.43;;;5.60;;
26478;SDS011;14163;-26.142;27.992;2023-03-14T08:25:57;6.63;;;5.00;;
26478;SDS011;14163;-26.142;27.992;2023-03-14T08:28:26;8.33;;;4.67;;
26478;SDS011;14163;-26.142;27.992;2023-03-14T08:30:58;7.50;;;5.70;;
26478;SDS011;14163;-26.142;27.992;2023-03-14T08:33:28;8.10;;;5.23;;
26478;SDS011;14163;-26.142;27.992;2023-03-14T08:35:58;7.67;;;5.47;;
26478;SDS011;14163;-26.142;27.992;2023-03-14T08:38:30;14.23;;;10.17;;
26478;SDS011;14163;-26.142;27.992;2023-03-14T08:40:59;6.67;;;5.97;;
26478;SDS011;14163;-26.142;27.992;2023-03-14T08:43:29;16.03;;;12.40;;
26478;SDS011;14163;-26.142;27.992;2023-03-14T08:45:59;14.30;;;10.27;;
26478;SDS011;14163;-26.142;27.992;2023-03-14T08:48:29;6.43;;;5.73;;
26478;SDS011;14163;-26.142;27.992;2023-03-14T08:51:03;7.67;;;6.13;;
26478;SDS011;14163;-26.142;27.992;2023-03-14T08:53:35;10.67;;;7.00;;
26478;SDS011;14163;-26.142;27.992;2023-03-14T08:56:05;7.70;;;6.90;;
26478;SDS011;14163;-26.142;27.992;2023-03-14T08:58:35;7.53;;;5.60;;
26478;SDS011;14163;-26.142;27.992;2023-03-14T09:01:05;17.30;;;8.30;;
26478;SDS011;14163;-26.142;27.992;2023-03-14T09:03:35;9.17;;;6.43;;
26478;SDS011;14163;-26.142;27.992;2023-03-14T09:06:05;16.93;;;7.00;;
26478;SDS011;14163;-26.142;27.992;2023-03-14T09:08:38;12.53;;;7.10;;
26478;SDS011;14163;-26.142;27.992;2023-03-14T09:11:08;12.10;;;7.77;;
26478;SDS011;14163;-26.142;27.992;2023-03-14T09:13:37;12.10;;;7.13;;
26478;SDS011;14163;-26.142;27.992;2023-03-14T09:16:07;12.90;;;6.90;;
26478;SDS011;14163;-26.142;27.992;2023-03-14T09:18:36;13.20;;;6.87;;
26478;SDS011;14163;-26.142;27.992;2023-03-14T09:21:06;7.83;;;6.07;;
26478;SDS011;14163;-26.142;27.992;2023-03-14T09:23:35;8.80;;;6.00;;
26478;SDS011;14163;-26.142;27.992;2023-03-14T09:26:06;10.40;;;6.50;;
26478;SDS011;14163;-26.142;27.992;2023-03-14T09:28:36;12.53;;;5.70;;
26478;SDS011;14163;-26.142;27.992;2023-03-14T09:31:06;10.10;;;6.27;;
26478;SDS011;14163;-26.142;27.992;2023-03-14T09:33:36;8.40;;;5.40;;
26478;SDS011;14163;-26.142;27.992;2023-03-14T09:36:06;6.87;;;5.10;;
26478;SDS011;14163;-26.142;27.992;2023-03-14T09:38:38;5.57;;;4.00;;
26478;SDS011;14163;-26.142;27.992;2023-03-14T09:41:12;4.50;;;4.10;;
26478;SDS011;14163;-26.142;27.992;2023-03-14T09:43:43;6.97;;;4.10;;
26478;SDS011;14163;-26.142;27.992;2023-03-14T09:46:16;5.30;;;4.27;;
26478;SDS011;14163;-26.142;27.992;2023-03-14T09:48:46;4.63;;;3.57;;
26478;SDS011;14163;-26.142;27.992;2023-03-14T09:51:16;6.17;;;4.80;;
26478;SDS011;14163;-26.142;27.992;2023-03-14T09:53:51;4.67;;;4.27;;
26478;SDS011;14163;-26.142;27.992;2023-03-14T09:56:20;5.23;;;4.77;;
26478;SDS011;14163;-26.142;27.992;2023-03-14T09:58:53;5.13;;;4.40;;
26478;SDS011;14163;-26.142;27.992;2023-03-14T10:01:25;5.90;;;5.17;;
26478;SDS011;14163;-26.142;27.992;2023-03-14T12:04:13;11.20;;;8.83;;
26478;SDS011;14163;-26.142;27.992;2023-03-14T12:06:49;12.47;;;8.43;;
26478;SDS011;14163;-26.142;27.992;2023-03-14T12:09:19;13.50;;;9.10;;
26478;SDS011;14163;-26.142;27.992;2023-03-14T12:11:50;10.00;;;8.90;;
26478;SDS011;14163;-26.142;27.992;2023-03-14T12:14:24;12.37;;;8.87;;
26478;SDS011;14163;-26.142;27.992;2023-03-14T12:16:54;12.07;;;9.10;;
26478;SDS011;14163;-26.142;27.992;2023-03-14T12:19:33;14.00;;;9.50;;
26478;SDS011;14163;-26.142;27.992;2023-03-14T12:22:18;11.63;;;8.83;;
26478;SDS011;14163;-26.142;27.992;2023-03-14T12:25:01;13.27;;;9.40;;
26478;SDS011;14163;-26.142;27.992;2023-03-14T12:27:43;13.83;;;8.70;;
26478;SDS011;14163;-26.142;27.992;2023-03-14T12:30:18;15.40;;;9.50;;
26478;SDS011;14163;-26.142;27.992;2023-03-14T12:33:11;11.20;;;8.73;;
26478;SDS011;14163;-26.142;27.992;2023-03-14T12:39:22;13.03;;;8.43;;
26478;SDS011;14163;-26.142;27.992;2023-03-14T12:42:02;10.97;;;8.63;;
26478;SDS011;14163;-26.142;27.992;2023-03-14T12:44:42;11.97;;;9.00;;
26478;SDS011;14163;-26.142;27.992;2023-03-14T12:50:14;12.63;;;9.17;;
26478;SDS011;14163;-26.142;27.992;2023-03-14T12:52:59;12.10;;;8.80;;
26478;SDS011;14163;-26.142;27.992;2023-03-14T12:55:42;11.90;;;8.30;;
26478;SDS011;14163;-26.142;27.992;2023-03-14T12:58:16;7.77;;;6.40;;
26478;SDS011;14163;-26.142;27.992;2023-03-14T13:00:54;9.67;;;6.70;;
26478;SDS011;14163;-26.142;27.992;2023-03-14T13:03:27;11.37;;;8.03;;
26478;SDS011;14163;-26.142;27.992;2023-03-14T13:06:08;9.90;;;8.33;;
26478;SDS011;14163;-26.142;27.992;2023-03-14T13:08:41;8.83;;;7.83;;
26478;SDS011;14163;-26.142;27.992;2023-03-14T13:11:14;9.90;;;7.47;;
26478;SDS011;14163;-26.142;27.992;2023-03-14T13:13:46;11.40;;;7.70;;
26478;SDS011;14163;-26.142;27.992;2023-03-14T13:16:18;7.77;;;6.83;;
26478;SDS011;14163;-26.142;27.992;2023-03-14T13:18:48;10.13;;;7.30;;
26478;SDS011;14163;-26.142;27.992;2023-03-14T13:21:19;8.47;;;6.20;;
26478;SDS011;14163;-26.142;27.992;2023-03-14T13:23:58;7.63;;;6.83;;
26478;SDS011;14163;-26.142;27.992;2023-03-14T13:26:32;8.90;;;7.57;;
26478;SDS011;14163;-26.142;27.992;2023-03-14T13:29:15;9.03;;;7.13;;
26478;SDS011;14163;-26.142;27.992;2023-03-14T13:31:45;9.63;;;7.80;;
26478;SDS011;14163;-26.142;27.992;2023-03-14T13:34:15;9.70;;;8.30;;
26478;SDS011;14163;-26.142;27.992;2023-03-14T13:36:44;10.83;;;8.80;;
26478;SDS011;14163;-26.142;27.992;2023-03-14T13:39:16;9.67;;;8.60;;
26478;SDS011;14163;-26.142;27.992;2023-03-14T13:41:47;10.00;;;8.90;;
26478;SDS011;14163;-26.142;27.992;2023-03-14T13:44:17;8.77;;;7.97;;
26478;SDS011;14163;-26.142;27.992;2023-03-14T13:46:51;10.93;;;7.97;;
26478;SDS011;14163;-26.142;27.992;2023-03-14T13:49:25;20.70;;;10.80;;
26478;SDS011;14163;-26.142;27.992;2023-03-14T13:51:58;14.63;;;11.63;;
26478;SDS011;14163;-26.142;27.992;2023-03-14T13:54:29;15.20;;;11.10;;
26478;SDS011;14163;-26.142;27.992;2023-03-14T13:57:00;10.90;;;8.77;;
26478;SDS011;14163;-26.142;27.992;2023-03-14T13:59:31;15.13;;;9.90;;
26478;SDS011;14163;-26.142;27.992;2023-03-14T14:02:03;11.63;;;10.20;;
26478;SDS011;14163;-26.142;27.992;2023-03-14T14:04:38;15.20;;;11.10;;
26478;SDS011;14163;-26.142;27.992;2023-03-14T14:07:08;15.40;;;13.23;;
26478;SDS011;14163;-26.142;27.992;2023-03-14T14:09:43;18.07;;;12.77;;
26478;SDS011;14163;-26.142;27.992;2023-03-14T14:12:16;16.80;;;13.30;;
26478;SDS011;14163;-26.142;27.992;2023-03-14T14:14:51;15.80;;;12.00;;
26478;SDS011;14163;-26.142;27.992;2023-03-14T14:17:24;14.07;;;11.87;;
26478;SDS011;14163;-26.142;27.992;2023-03-14T14:19:55;15.33;;;11.77;;
26478;SDS011;14163;-26.142;27.992;2023-03-14T14:22:26;12.40;;;10.30;;
26478;SDS011;14163;-26.142;27.992;2023-03-14T14:24:57;12.33;;;10.03;;
26478;SDS011;14163;-26.142;27.992;2023-03-14T14:27:28;12.40;;;10.17;;
26478;SDS011;14163;-26.142;27.992;2023-03-14T14:30:02;16.27;;;12.93;;
26478;SDS011;14163;-26.142;27.992;2023-03-14T14:32:36;13.63;;;10.63;;
26478;SDS011;14163;-26.142;27.992;2023-03-14T14:35:08;9.53;;;8.27;;
26478;SDS011;14163;-26.142;27.992;2023-03-14T14:37:49;13.30;;;9.50;;
26478;SDS011;14163;-26.142;27.992;2023-03-14T14:40:21;12.97;;;10.27;;
26478;SDS011;14163;-26.142;27.992;2023-03-14T14:42:53;12.67;;;9.83;;
26478;SDS011;14163;-26.142;27.992;2023-03-14T14:45:23;13.43;;;10.87;;
26478;SDS011;14163;-26.142;27.992;2023-03-14T14:47:56;12.20;;;9.80;;
26478;SDS011;14163;-26.142;27.992;2023-03-14T14:50:31;9.57;;;8.10;;
26478;SDS011;14163;-26.142;27.992;2023-03-14T14:53:02;8.70;;;7.80;;
26478;SDS011;14163;-26.142;27.992;2023-03-14T14:55:51;7.00;;;6.30;;
26478;SDS011;14163;-26.142;27.992;2023-03-14T14:58:23;8.70;;;7.80;;
26478;SDS011;14163;-26.142;27.992;2023-03-14T15:00:59;7.47;;;6.60;;
26478;SDS011;14163;-26.142;27.992;2023-03-14T15:03:31;7.23;;;6.40;;
26478;SDS011;14163;-26.142;27.992;2023-03-14T15:06:02;9.17;;;6.30;;
26478;SDS011;14163;-26.142;27.992;2023-03-14T15:08:32;5.83;;;4.90;;
26478;SDS011;14163;-26.142;27.992;2023-03-14T15:11:02;5.20;;;4.73;;
26478;SDS011;14163;-26.142;27.992;2023-03-14T15:13:32;5.13;;;4.67;;
26478;SDS011;14163;-26.142;27.992;2023-03-14T15:16:01;7.70;;;4.50;;
26478;SDS011;14163;-26.142;27.992;2023-03-14T15:18:30;4.80;;;4.27;;
26478;SDS011;14163;-26.142;27.992;2023-03-14T15:21:00;5.93;;;5.40;;
26478;SDS011;14163;-26.142;27.992;2023-03-14T15:23:29;10.93;;;10.03;;
26478;SDS011;14163;-26.142;27.992;2023-03-14T15:25:58;4.50;;;4.20;;
26478;SDS011;14163;-26.142;27.992;2023-03-14T15:28:30;3.97;;;3.77;;
26478;SDS011;14163;-26.142;27.992;2023-03-14T15:30:59;4.00;;;3.60;;
26478;SDS011;14163;-26.142;27.992;2023-03-14T15:33:28;3.60;;;3.40;;
26478;SDS011;14163;-26.142;27.992;2023-03-14T15:35:58;4.03;;;3.60;;
26478;SDS011;14163;-26.142;27.992;2023-03-14T15:38:27;5.07;;;3.50;;
26478;SDS011;14163;-26.142;27.992;2023-03-14T15:40:57;4.20;;;3.90;;
26478;SDS011;14163;-26.142;27.992;2023-03-14T15:43:26;4.80;;;3.20;;
26478;SDS011;14163;-26.142;27.992;2023-03-14T15:45:57;6.40;;;4.13;;
26478;SDS011;14163;-26.142;27.992;2023-03-14T15:48:26;3.93;;;3.40;;
26478;SDS011;14163;-26.142;27.992;2023-03-14T15:50:55;6.17;;;3.90;;
26478;SDS011;14163;-26.142;27.992;2023-03-14T15:53:24;4.20;;;3.53;;
26478;SDS011;14163;-26.142;27.992;2023-03-14T15:55:54;4.70;;;3.73;;
26478;SDS011;14163;-26.142;27.992;2023-03-14T15:58:23;4.13;;;3.83;;
26478;SDS011;14163;-26.142;27.992;2023-03-14T16:00:52;4.17;;;3.80;;
26478;SDS011;14163;-26.142;27.992;2023-03-14T16:03:23;4.10;;;3.70;;
26478;SDS011;14163;-26.142;27.992;2023-03-14T16:05:52;3.50;;;3.30;;
26478;SDS011;14163;-26.142;27.992;2023-03-14T16:08:22;3.60;;;3.33;;
26478;SDS011;14163;-26.142;27.992;2023-03-14T16:10:54;10.50;;;9.70;;
26478;SDS011;14163;-26.142;27.992;2023-03-14T16:13:24;7.33;;;6.80;;
26478;SDS011;14163;-26.142;27.992;2023-03-14T16:15:55;8.50;;;5.10;;
26478;SDS011;14163;-26.142;27.992;2023-03-14T16:18:29;5.73;;;5.33;;
26478;SDS011;14163;-26.142;27.992;2023-03-14T16:21:00;7.03;;;4.57;;
26478;SDS011;14163;-26.142;27.992;2023-03-14T16:23:31;4.83;;;4.43;;
26478;SDS011;14163;-26.142;27.992;2023-03-14T16:26:02;4.93;;;4.63;;
26478;SDS011;14163;-26.142;27.992;2023-03-14T16:28:32;4.03;;;3.40;;
26478;SDS011;14163;-26.142;27.992;2023-03-14T16:31:02;7.10;;;4.10;;
26478;SDS011;14163;-26.142;27.992;2023-03-14T16:33:35;5.03;;;4.53;;
26478;SDS011;14163;-26.142;27.992;2023-03-14T16:36:05;4.20;;;3.80;;
26478;SDS011;14163;-26.142;27.992;2023-03-14T16:38:37;4.63;;;4.10;;
26478;SDS011;14163;-26.142;27.992;2023-03-14T16:41:08;4.87;;;3.90;;
26478;SDS011;14163;-26.142;27.992;2023-03-14T16:43:39;3.30;;;3.00;;
26478;SDS011;14163;-26.142;27.992;2023-03-14T16:46:10;3.87;;;3.57;;
26478;SDS011;14163;-26.142;27.992;2023-03-14T16:48:46;9.17;;;8.47;;
26478;SDS011;14163;-26.142;27.992;2023-03-14T16:51:15;15.73;;;14.33;;
26478;SDS011;14163;-26.142;27.992;2023-03-14T16:53:44;17.17;;;15.43;;
26478;SDS011;14163;-26.142;27.992;2023-03-14T16:56:14;4.10;;;3.50;;
26478;SDS011;14163;-26.142;27.992;2023-03-14T16:58:43;3.67;;;3.43;;
26478;SDS011;14163;-26.142;27.992;2023-03-14T17:01:13;4.57;;;4.10;;
26478;SDS011;14163;-26.142;27.992;2023-03-14T17:03:46;4.10;;;3.80;;
26478;SDS011;14163;-26.142;27.992;2023-03-14T17:06:16;10.40;;;3.93;;
26478;SDS011;14163;-26.142;27.992;2023-03-14T17:08:48;5.27;;;4.77;;
26478;SDS011;14163;-26.142;27.992;2023-03-14T17:11:18;9.17;;;5.17;;
26478;SDS011;14163;-26.142;27.992;2023-03-14T17:13:47;6.20;;;5.60;;
26478;SDS011;14163;-26.142;27.992;2023-03-14T17:16:16;6.33;;;5.03;;
26478;SDS011;14163;-26.142;27.992;2023-03-14T17:18:47;5.67;;;4.70;;
26478;SDS011;14163;-26.142;27.992;2023-03-14T17:21:16;5.57;;;5.00;;
26478;SDS011;14163;-26.142;27.992;2023-03-14T17:23:46;4.77;;;4.30;;
26478;SDS011;14163;-26.142;27.992;2023-03-14T17:26:15;6.73;;;4.47;;
26478;SDS011;14163;-26.142;27.992;2023-03-14T17:28:44;4.43;;;3.93;;
26478;SDS011;14163;-26.142;27.992;2023-03-14T17:31:14;6.93;;;4.90;;
26478;SDS011;14163;-26.142;27.992;2023-03-14T17:33:45;4.83;;;4.33;;
26478;SDS011;14163;-26.142;27.992;2023-03-14T17:38:03;5.10;;;4.43;;
26478;SDS011;14163;-26.142;27.992;2023-03-14T17:40:32;5.67;;;4.57;;
26478;SDS011;14163;-26.142;27.992;2023-03-14T17:43:02;5.37;;;4.53;;
26478;SDS011;14163;-26.142;27.992;2023-03-14T17:45:31;7.73;;;4.40;;
26478;SDS011;14163;-26.142;27.992;2023-03-14T17:48:01;4.83;;;4.43;;
26478;SDS011;14163;-26.142;27.992;2023-03-14T17:50:31;6.10;;;4.90;;
26478;SDS011;14163;-26.142;27.992;2023-03-14T17:53:02;5.20;;;4.80;;
26478;SDS011;14163;-26.142;27.992;2023-03-14T17:55:31;5.60;;;5.00;;
26478;SDS011;14163;-26.142;27.992;2023-03-14T17:58:01;5.50;;;4.83;;
26478;SDS011;14163;-26.142;27.992;2023-03-14T18:00:33;6.80;;;4.77;;
26478;SDS011;14163;-26.142;27.992;2023-03-14T18:03:02;15.03;;;4.73;;
26478;SDS011;14163;-26.142;27.992;2023-03-14T18:05:31;4.63;;;4.20;;
26478;SDS011;14163;-26.142;27.992;2023-03-14T18:08:06;8.90;;;4.93;;
26478;SDS011;14163;-26.142;27.992;2023-03-14T18:10:38;12.53;;;5.13;;
26478;SDS011;14163;-26.142;27.992;2023-03-14T18:13:07;11.07;;;5.67;;
26478;SDS011;14163;-26.142;27.992;2023-03-14T18:15:37;16.80;;;5.73;;
26478;SDS011;14163;-26.142;27.992;2023-03-14T18:18:06;5.90;;;4.70;;
26478;SDS011;14163;-26.142;27.992;2023-03-14T18:20:35;6.93;;;5.73;;
26478;SDS011;14163;-26.142;27.992;2023-03-14T18:23:06;19.20;;;5.53;;
26478;SDS011;14163;-26.142;27.992;2023-03-14T18:25:35;14.90;;;6.17;;
26478;SDS011;14163;-26.142;27.992;2023-03-14T18:28:04;10.43;;;7.10;;
26478;SDS011;14163;-26.142;27.992;2023-03-14T18:30:34;13.43;;;7.00;;
26478;SDS011;14163;-26.142;27.992;2023-03-14T18:33:03;11.77;;;7.40;;
26478;SDS011;14163;-26.142;27.992;2023-03-14T18:35:32;31.17;;;9.13;;
26478;SDS011;14163;-26.142;27.992;2023-03-14T18:38:03;16.57;;;8.20;;
26478;SDS011;14163;-26.142;27.992;2023-03-14T18:40:34;25.17;;;6.77;;
26478;SDS011;14163;-26.142;27.992;2023-03-14T18:43:03;12.47;;;6.27;;
26478;SDS011;14163;-26.142;27.992;2023-03-14T18:45:33;17.47;;;6.30;;
26478;SDS011;14163;-26.142;27.992;2023-03-14T18:48:02;15.13;;;6.60;;